Thursday, January 17, 2019, 5:58 AM EST
Back to Local

KSNC, Chester, Chester Airport

Location: Chester, CT, United States Lat: 41.384
Local Time: 5:58 AM EST (10:58 GMT) Lon: -72.506
Time Zone: US/Eastern Elev: 416 ft

Show me the last for .
Show Decoded

2019-01-17 05:35 METAR KSNC 171035Z AUTO 34011KT 10SM CLR M05/M16 A3029 RMK AO2 =
2019-01-17 05:15 METAR KSNC 171015Z AUTO 34012KT 10SM CLR M05/M15 A3028 RMK AO2 =
2019-01-17 04:55 METAR KSNC 170955Z AUTO 36008G18KT 10SM CLR M05/M14 A3028 RMK AO2 =
2019-01-17 04:35 METAR KSNC 170935Z AUTO 34007G18KT 10SM CLR M05/M13 A3028 RMK AO2 =
2019-01-17 04:15 METAR KSNC 170915Z AUTO 34007G12KT 10SM CLR M05/M12 A3027 RMK AO2 =
2019-01-17 03:55 METAR KSNC 170855Z AUTO 33008G13KT 10SM CLR M04/M12 A3027 RMK AO2 =
2019-01-17 03:35 METAR KSNC 170835Z AUTO 33010G15KT 10SM CLR M04/M12 A3026 RMK AO2 =
2019-01-17 03:15 METAR KSNC 170815Z AUTO 33005KT 10SM CLR M04/M12 A3026 RMK AO2 =
2019-01-17 02:55 METAR KSNC 170755Z AUTO 32004G10KT 10SM CLR M04/M13 A3025 RMK AO2 =
2019-01-17 02:35 METAR KSNC 170735Z AUTO 33009G16KT 10SM CLR M04/M13 A3025 RMK AO2 =
2019-01-17 01:55 METAR KSNC 170655Z AUTO 34007G17KT 10SM CLR M03/M13 A3023 RMK AO2 =
2019-01-17 01:35 METAR KSNC 170635Z AUTO 33007G13KT 320V020 10SM CLR M03/M13 A3022 RMK AO2 =
2019-01-17 01:15 METAR KSNC 170615Z AUTO 34008G15KT 10SM CLR M03/M13 A3021 RMK AO2 =
2019-01-17 00:55 METAR KSNC 170555Z AUTO 34010KT 10SM CLR M03/M13 A3020 RMK AO2 =
2019-01-17 00:35 METAR KSNC 170535Z AUTO 33008G16KT 10SM CLR M02/M13 A3018 RMK AO2 =
2019-01-17 00:15 METAR KSNC 170515Z AUTO 33011KT 320V020 10SM CLR M02/M12 A3018 RMK AO2 =
2019-01-16 23:55 METAR KSNC 170455Z AUTO 34009G15KT 10SM CLR M01/M11 A3018 RMK AO2 =
2019-01-16 23:35 METAR KSNC 170435Z AUTO 34014KT 10SM CLR M01/M11 A3017 RMK AO2 =
2019-01-16 23:15 METAR KSNC 170415Z AUTO 34009G15KT 10SM CLR M01/M11 A3017 RMK AO2 =
2019-01-16 22:55 METAR KSNC 170355Z AUTO 33010G15KT 10SM CLR M00/M10 A3015 RMK AO2 =
2019-01-16 22:35 METAR KSNC 170335Z AUTO 32008G15KT 10SM CLR 00/M09 A3014 RMK AO2 =
2019-01-16 22:15 METAR KSNC 170315Z AUTO 32009KT 10SM FEW039 SCT047 01/M07 A3012 RMK AO2 =
2019-01-16 21:55 METAR KSNC 170255Z AUTO 33007G14KT 10SM SCT040 OVC049 02/M06 A3012 RMK AO2 =
2019-01-16 21:35 METAR KSNC 170235Z AUTO 33010KT 10SM SCT043 OVC050 02/M06 A3010 RMK AO2 =
2019-01-16 21:15 METAR KSNC 170215Z AUTO VRB04KT 10SM BKN046 OVC050 02/M07 A3008 RMK AO2 =
2019-01-16 20:55 METAR KSNC 170155Z AUTO 28005KT 10SM OVC050 02/M07 A3007 RMK AO2 =
2019-01-16 20:35 METAR KSNC 170135Z AUTO 25005KT 10SM OVC050 02/M06 A3007 RMK AO2 =
2019-01-16 20:15 METAR KSNC 170115Z AUTO VRB03KT 10SM OVC050 02/M06 A3006 RMK AO2 =
2019-01-16 19:55 METAR KSNC 170055Z AUTO 23006KT 10SM OVC055 02/M06 A3005 RMK AO2 =
2019-01-16 19:35 METAR KSNC 170035Z AUTO 24006KT 10SM OVC055 02/M07 A3005 RMK AO2 =
2019-01-16 19:15 METAR KSNC 170015Z AUTO 24006KT 10SM OVC055 02/M07 A3004 RMK AO2 =
2019-01-16 18:55 METAR KSNC 162355Z AUTO 24006KT 10SM OVC055 02/M07 A3004 RMK AO2 =
2019-01-16 18:35 METAR KSNC 162335Z AUTO 24006KT 10SM OVC055 02/M07 A3004 RMK AO2 =
2019-01-16 18:15 METAR KSNC 162315Z AUTO 27003KT 10SM BKN055 01/M07 A3003 RMK AO2 =
2019-01-16 17:55 METAR KSNC 162255Z AUTO 27005KT 10SM SCT050 00/M07 A3002 RMK AO2 =
2019-01-16 17:35 METAR KSNC 162235Z AUTO 00000KT 10SM CLR M00/M07 A3001 RMK AO2 =
2019-01-16 17:15 METAR KSNC 162215Z AUTO 25003KT 10SM FEW049 01/M07 A3001 RMK AO2 =
2019-01-16 16:55 METAR KSNC 162155Z AUTO 00000KT 10SM BKN049 01/M07 A3000 RMK AO2 =
2019-01-16 16:35 METAR KSNC 162135Z AUTO 26003KT 10SM BKN049 02/M07 A2999 RMK AO2 =
2019-01-16 16:15 METAR KSNC 162115Z AUTO 28005KT 10SM SCT046 02/M07 A2999 RMK AO2 =
2019-01-16 15:55 METAR KSNC 162055Z AUTO VRB06G12KT 10SM OVC044 03/M07 A2998 RMK AO2 =
2019-01-16 15:35 METAR KSNC 162035Z AUTO VRB05KT 10SM BKN043 03/M06 A2998 RMK AO2 =
2019-01-16 15:15 METAR KSNC 162015Z AUTO 28007G12KT 10SM BKN041 02/M06 A2998 RMK AO2 =
2019-01-16 14:55 METAR KSNC 161955Z AUTO VRB05G12KT 10SM OVC038 03/M06 A2998 RMK AO2 =
2019-01-16 14:35 METAR KSNC 161935Z AUTO 27005G11KT 10SM OVC039 03/M06 A2998 RMK AO2 =
2019-01-16 14:15 METAR KSNC 161915Z AUTO 29003G10KT 10SM OVC039 02/M06 A2998 RMK AO2 =
2019-01-16 13:55 METAR KSNC 161855Z AUTO 27006KT 10SM OVC038 02/M06 A2997 RMK AO2 =
2019-01-16 13:35 METAR KSNC 161835Z AUTO VRB06KT 10SM OVC037 02/M06 A2997 RMK AO2 =
2019-01-16 13:15 METAR KSNC 161815Z AUTO VRB06KT 10SM 01/M06 A2997 RMK AO2 =
2019-01-16 12:55 METAR KSNC 161755Z AUTO VRB06KT 10SM OVC036 02/M06 A2998 RMK AO2 =
2019-01-16 12:35 METAR KSNC 161735Z AUTO VRB05G11KT 9SM OVC036 01/M06 A2998 RMK AO2 =
2019-01-16 12:15 METAR KSNC 161715Z AUTO 25009KT 9SM OVC033 01/M05 A2998 RMK AO2 =
2019-01-16 11:55 METAR KSNC 161655Z AUTO VRB04G10KT 9SM OVC028 01/M05 A2999 RMK AO2 =
2019-01-16 11:35 METAR KSNC 161635Z AUTO VRB05KT 9SM OVC027 01/M05 A3000 RMK AO2 =
2019-01-16 11:15 METAR KSNC 161615Z AUTO 26008KT 9SM OVC026 00/M05 A3000 RMK AO2 =
2019-01-16 10:55 METAR KSNC 161555Z AUTO VRB04KT 9SM OVC026 00/M05 A3001 RMK AO2 =
2019-01-16 10:35 METAR KSNC 161535Z AUTO 24004KT 9SM OVC025 M00/M05 A3002 RMK AO2 =
2019-01-16 10:15 METAR KSNC 161515Z AUTO 25005KT 9SM OVC024 M00/M06 A3002 RMK AO2 =
2019-01-16 09:55 METAR KSNC 161455Z AUTO VRB05G12KT 9SM OVC023 M00/M06 A3002 RMK AO2 =
2019-01-16 09:35 METAR KSNC 161435Z AUTO VRB06KT 9SM OVC023 M00/M06 A3002 RMK AO2 =
2019-01-16 09:15 METAR KSNC 161415Z AUTO 23007G12KT 9SM OVC025 M00/M06 A3001 RMK AO2 =
2019-01-16 08:55 METAR KSNC 161355Z AUTO 25007KT 220V280 9SM BKN027 M00/M06 A3001 RMK AO2 =
2019-01-16 08:35 METAR KSNC 161335Z AUTO 25005KT 9SM CLR M00/M05 A3001 RMK AO2 =
2019-01-16 08:15 METAR KSNC 161315Z AUTO 26005KT 9SM CLR M01/M05 A3001 RMK AO2 =
2019-01-16 07:55 METAR KSNC 161255Z AUTO VRB06KT 9SM CLR M01/M05 A3001 RMK AO2 =
2019-01-16 07:35 METAR KSNC 161235Z AUTO 25005KT 9SM CLR M02/M06 A3001 RMK AO2 =
2019-01-16 07:15 METAR KSNC 161215Z AUTO VRB04KT 9SM CLR M02/M06 A3001 RMK AO2 =
2019-01-16 06:55 METAR KSNC 161155Z AUTO VRB04KT 10SM CLR M02/M06 A3001 RMK AO2 =
2019-01-16 06:35 METAR KSNC 161135Z AUTO 24005KT 10SM CLR M02/M06 A3001 RMK AO2 =
2019-01-16 06:15 METAR KSNC 161115Z AUTO 24006KT 10SM CLR M02/M06 A3000 RMK AO2 =

Support USWX by starting your Amazon purchase here.